Aérodrome :
LOGIN :

S'inscrire | Disclaimer

   EN    FR    IT 

 










Légende :    VFR   VFR Marginal   IFR   IFR Intensif   IFR Très Intensif
Visi : 
Plafond : 
>= 8 km
>= 3000ft
5 à 8 km
1000 à 3000 ft
1500m à 5 km
500 à 1000 ft
800 à 1500m
200 à 500 ft
< 800m
< 200 ft
Symboles :   Orages  Brouillard  Fortes neiges  Fortes précipitations  Vent > 20 kt
SIGMETs :   Divers  Orages  Givrage  Turbulence  Onde Orograph.  Cendres Volcan.






- Altitude de l'aérodrome : 313 ft
- Code IATA : LEH


LFOH - Le Havre Octeville

DERNIER METAR :
  • 250430Z AUTO 11006KT 0400 R22/0450N FG VV/// 01/01 Q1020

METARs EXPIRÉS :
  • 250400Z AUTO 10004KT 0350 R22/0375N FG VV/// 01/01 Q1020
  • 250330Z AUTO 11005KT 090V150 0350 R22/0400N FG VV/// 01/01 Q1020
  • 250300Z AUTO 12005KT 0400 R22/0450N FG VV/// 02/01 Q1020
  • 250230Z AUTO 13006KT 0400 R22/0450N FG VV/// 02/02 Q1020
  • 250200Z AUTO 13005KT 0450 0400 R22/0550N FG VV/// 02/02 Q1021

TAF TAF LFOH
Valide du 24 à 12h jusqu'au 25 à 12h UTC


241100Z 2412/2512 15003KT 4000 BR OVC006
BECMG 2417/2420 1500 BR OVC003
PROB40 2500/2510 0300 FG VV///
BECMG 2510/2512 3000 BR OVC003
ATIS : +33 2 35 54 64 93



MET'MAP, la Météo Aéronautique d'un coup d'oeil ! - Copyright ORBIFLY Décembre 2007 - Disclaimer

ORBIFLY MET'MAP TEAM :

Programmation & Développement : Alexandra Zaïnal
Sur une idée originale de : Baudouin d'Aumeries
Assistance à la programmation : Marc-Olivier Méhu
Soutien technique & logistique : Manuel Goepfert

Contact : metmap@orbifly.com




SOURCES & CREDITS :

   NOAA